createdAt,value
2018-04-15T00:00:03.549Z,9.22
2018-04-15T00:01:03.478Z,9.27
2018-04-15T00:02:03.403Z,9.22
2018-04-15T00:03:03.328Z,9.22
2018-04-15T00:04:03.249Z,9.19
2018-04-15T00:05:03.184Z,9.16
2018-04-15T00:06:03.092Z,9.09
2018-04-15T00:07:03.025Z,8.95
2018-04-15T00:08:02.942Z,8.76
2018-04-15T00:09:02.867Z,8.75
2018-04-15T00:10:02.785Z,8.68
2018-04-15T00:11:02.720Z,8.65
2018-04-15T00:12:02.633Z,8.58
2018-04-15T00:13:02.564Z,8.57
2018-04-15T00:14:02.483Z,8.58
2018-04-15T00:15:02.410Z,8.61
2018-04-15T00:16:02.327Z,8.69
2018-04-15T00:17:02.253Z,8.65
2018-04-15T00:18:02.179Z,8.61
2018-04-15T00:19:02.106Z,8.66
2018-04-15T00:20:02.024Z,8.72
2018-04-15T00:21:01.959Z,8.77
2018-04-15T00:22:01.869Z,8.72
2018-04-15T00:23:01.806Z,8.79
2018-04-15T00:24:01.723Z,8.80
2018-04-15T00:25:01.650Z,8.75
2018-04-15T00:26:01.568Z,8.68
2018-04-15T00:27:01.494Z,8.73
2018-04-15T00:28:01.410Z,8.69
2018-04-15T00:29:01.341Z,8.62
2018-04-15T00:30:01.259Z,8.61
2018-04-15T00:31:01.190Z,8.66
2018-04-15T00:32:01.110Z,8.61
2018-04-15T00:33:01.038Z,8.54
2018-04-15T00:34:00.954Z,8.55
2018-04-15T00:35:00.882Z,8.58
2018-04-15T00:36:00.801Z,8.55
2018-04-15T00:37:00.729Z,8.55
2018-04-15T00:38:00.644Z,8.55
2018-04-15T00:39:00.579Z,8.54
2018-04-15T00:40:00.492Z,8.60
2018-04-15T00:41:00.422Z,8.61
2018-04-15T00:42:00.338Z,8.58
2018-04-15T00:43:00.269Z,8.58
2018-04-15T00:44:00.186Z,8.61
2018-04-15T00:45:00.115Z,8.55
2018-04-15T00:46:00.032Z,8.62
2018-04-15T00:46:59.961Z,8.65
2018-04-15T00:47:59.877Z,8.65
2018-04-15T00:48:59.808Z,8.58
2018-04-15T00:49:59.728Z,8.66
2018-04-15T00:50:59.650Z,8.62
2018-04-15T00:51:59.568Z,8.68
2018-04-15T00:52:59.504Z,8.61
2018-04-15T00:53:59.414Z,8.68
2018-04-15T00:54:59.346Z,8.61
2018-04-15T00:55:59.264Z,8.66
2018-04-15T00:56:59.197Z,8.66
2018-04-15T00:57:59.109Z,8.72
2018-04-15T00:58:59.040Z,8.60
2018-04-15T00:59:58.953Z,8.62
2018-04-15T01:00:58.892Z,8.62
2018-04-15T01:01:58.803Z,8.66
2018-04-15T01:02:58.733Z,8.61
2018-04-15T01:03:58.656Z,8.61
2018-04-15T01:04:58.579Z,8.66
2018-04-15T01:05:58.501Z,8.65
2018-04-15T01:06:58.426Z,8.69
2018-04-15T01:07:58.339Z,8.61
2018-04-15T01:08:58.276Z,8.62
2018-04-15T01:09:58.195Z,8.68
2018-04-15T01:10:58.121Z,8.62
2018-04-15T01:11:58.037Z,8.65
2018-04-15T01:12:57.967Z,8.62
2018-04-15T01:13:57.885Z,8.65
2018-04-15T01:14:57.813Z,8.57
2018-04-15T01:15:57.726Z,8.52
2018-04-15T01:16:57.660Z,8.47
2018-04-15T01:17:57.576Z,8.55
2018-04-15T01:18:57.506Z,8.33
2018-04-15T01:19:57.420Z,8.17
2018-04-15T01:20:57.358Z,8.01
2018-04-15T01:21:57.270Z,7.97
2018-04-15T01:22:57.200Z,7.81
2018-04-15T01:23:57.124Z,7.81
2018-04-15T01:24:57.043Z,7.70
2018-04-15T01:25:56.961Z,7.72
2018-04-15T01:26:56.890Z,7.70
2018-04-15T01:27:56.812Z,7.67
2018-04-15T01:28:56.735Z,7.68
2018-04-15T01:29:56.652Z,7.75
2018-04-15T01:30:56.584Z,7.75
2018-04-15T01:31:56.500Z,7.83
2018-04-15T01:32:56.432Z,7.94
2018-04-15T01:33:56.347Z,7.90
2018-04-15T01:34:56.269Z,7.88
2018-04-15T01:35:56.201Z,8.06
2018-04-15T01:36:56.114Z,8.04
2018-04-15T01:37:56.045Z,8.04
2018-04-15T01:38:55.959Z,8.12
2018-04-15T01:39:55.886Z,8.12
2018-04-15T01:40:55.806Z,8.09
2018-04-15T01:41:55.731Z,8.17
2018-04-15T01:42:55.651Z,8.18
2018-04-15T01:43:55.586Z,8.15
2018-04-15T01:44:55.499Z,8.07
2018-04-15T01:45:55.428Z,7.97
2018-04-15T01:46:55.341Z,7.88
2018-04-15T01:47:55.273Z,7.79
2018-04-15T01:48:55.188Z,7.68
2018-04-15T01:49:55.121Z,7.67
2018-04-15T01:50:55.035Z,7.70
2018-04-15T01:51:54.968Z,7.63
2018-04-15T01:52:54.892Z,7.64
2018-04-15T01:53:54.809Z,7.67
2018-04-15T01:54:54.724Z,7.75
2018-04-15T01:55:54.657Z,7.68
2018-04-15T01:56:54.581Z,7.73
2018-04-15T01:57:54.501Z,7.72
2018-04-15T01:58:54.420Z,7.72
2018-04-15T01:59:54.349Z,7.82
2018-04-15T02:00:54.263Z,7.76
2018-04-15T02:01:54.201Z,7.81
2018-04-15T02:02:54.113Z,7.88
2018-04-15T02:03:54.040Z,7.91
2018-04-15T02:04:53.952Z,7.86
2018-04-15T02:05:53.885Z,7.85
2018-04-15T02:06:53.800Z,7.85
2018-04-15T02:07:53.731Z,7.82
2018-04-15T02:08:53.645Z,7.81
2018-04-15T02:09:53.583Z,7.73
2018-04-15T02:10:53.494Z,7.81
2018-04-15T02:11:53.427Z,7.73
2018-04-15T02:12:53.337Z,7.72
2018-04-15T02:13:53.272Z,7.64
2018-04-15T02:14:53.185Z,7.63
2018-04-15T02:15:53.109Z,7.64
2018-04-15T02:16:53.031Z,7.63
2018-04-15T02:17:52.960Z,7.57
2018-04-15T02:18:52.876Z,7.57
2018-04-15T02:19:52.805Z,7.55
2018-04-15T02:20:52.724Z,7.67
2018-04-15T02:21:52.654Z,7.55
2018-04-15T02:22:52.564Z,7.52
2018-04-15T02:23:52.495Z,7.42
2018-04-15T02:24:52.412Z,7.41
2018-04-15T02:25:52.347Z,7.35
2018-04-15T02:26:52.263Z,7.39
2018-04-15T02:27:52.188Z,7.38
2018-04-15T02:28:52.102Z,7.35
2018-04-15T02:29:52.037Z,7.31
2018-04-15T02:30:51.947Z,7.29
2018-04-15T02:31:52.876Z,7.19
2018-04-15T02:32:51.793Z,7.16
2018-04-15T02:33:51.726Z,7.06
2018-04-15T02:34:51.640Z,7.12
2018-04-15T02:35:51.570Z,7.06
2018-04-15T02:36:51.483Z,7.08
2018-04-15T02:37:51.426Z,7.11
2018-04-15T02:38:51.331Z,6.94
2018-04-15T02:39:51.259Z,6.98
2018-04-15T02:40:51.178Z,6.98
2018-04-15T02:41:51.109Z,7.01
2018-04-15T02:42:51.019Z,7.08
2018-04-15T02:43:50.960Z,7.12
2018-04-15T02:44:50.867Z,7.13
2018-04-15T02:45:50.796Z,7.19
2018-04-15T02:46:50.708Z,7.11
2018-04-15T02:47:50.652Z,7.34
2018-04-15T02:48:50.553Z,7.29
2018-04-15T02:49:50.488Z,7.27
2018-04-15T02:50:50.405Z,7.35
2018-04-15T02:51:50.332Z,7.30
2018-04-15T02:52:50.245Z,7.30
2018-04-15T02:53:51.183Z,7.30
2018-04-15T02:54:50.093Z,7.21
2018-04-15T02:55:50.021Z,7.31
2018-04-15T02:56:49.935Z,7.26
2018-04-15T02:57:49.866Z,7.17
2018-04-15T02:58:49.783Z,7.08
2018-04-15T02:59:49.708Z,7.06
2018-04-15T03:00:49.623Z,7.13
2018-04-15T03:01:49.555Z,7.01
2018-04-15T03:02:49.472Z,7.02
2018-04-15T03:03:49.400Z,6.93
2018-04-15T03:04:49.313Z,6.96
2018-04-15T03:05:49.244Z,7.02
2018-04-15T03:06:49.161Z,7.06
2018-04-15T03:07:49.089Z,6.94
2018-04-15T03:08:49.005Z,6.91
2018-04-15T03:09:48.940Z,6.87
2018-04-15T03:10:48.852Z,6.96
2018-04-15T03:11:48.780Z,7.01
2018-04-15T03:12:48.691Z,6.98
2018-04-15T03:13:48.616Z,7.06
2018-04-15T03:14:48.602Z,7.01
2018-04-15T03:15:48.500Z,7.02
2018-04-15T03:16:48.388Z,7.08
2018-04-15T03:17:48.313Z,6.98
2018-04-15T03:18:48.322Z,6.87
2018-04-15T03:19:48.148Z,6.93
2018-04-15T03:20:48.073Z,6.91
2018-04-15T03:21:47.996Z,6.90
2018-04-15T03:22:47.940Z,6.91
2018-04-15T03:23:47.838Z,6.75
2018-04-15T03:24:47.770Z,6.83
2018-04-15T03:25:47.685Z,6.81
2018-04-15T03:26:47.658Z,6.84
2018-04-15T03:27:47.531Z,6.81
2018-04-15T03:28:47.468Z,6.83
2018-04-15T03:29:47.371Z,6.81
2018-04-15T03:30:47.378Z,6.83
2018-04-15T03:31:47.218Z,6.75
2018-04-15T03:32:47.187Z,6.81
2018-04-15T03:33:47.064Z,6.84
2018-04-15T03:34:47.094Z,6.84
2018-04-15T03:35:46.909Z,6.90
2018-04-15T03:36:46.838Z,6.83
2018-04-15T03:37:46.752Z,6.78
2018-04-15T03:38:46.678Z,6.86
2018-04-15T03:39:46.592Z,6.78
2018-04-15T03:40:46.525Z,6.81
2018-04-15T03:41:46.444Z,6.78
2018-04-15T03:42:46.435Z,6.83
2018-04-15T03:43:46.280Z,6.86
2018-04-15T03:44:46.237Z,6.76
2018-04-15T03:45:46.128Z,6.84
2018-04-15T03:46:46.150Z,6.73
2018-04-15T03:47:45.973Z,6.81
2018-04-15T03:48:45.958Z,6.88
2018-04-15T03:49:45.821Z,6.83
2018-04-15T03:50:45.742Z,6.78
2018-04-15T03:51:45.660Z,6.80
2018-04-15T03:52:45.598Z,6.73
2018-04-15T03:53:45.502Z,6.69
2018-04-15T03:54:45.433Z,6.66
2018-04-15T03:55:45.348Z,6.66
2018-04-15T03:56:45.280Z,6.63
2018-04-15T03:57:45.194Z,6.65
2018-04-15T03:58:45.204Z,6.60
2018-04-15T03:59:45.042Z,6.51
2018-04-15T04:00:45.013Z,6.65
2018-04-15T04:01:44.881Z,6.55
2018-04-15T04:02:44.817Z,6.51
2018-04-15T04:03:44.728Z,6.59
2018-04-15T04:04:44.660Z,6.65
2018-04-15T04:05:44.574Z,6.59
2018-04-15T04:06:44.498Z,6.59
2018-04-15T04:07:44.418Z,6.57
2018-04-15T04:08:44.346Z,6.47
2018-04-15T04:09:44.259Z,6.52
2018-04-15T04:10:44.191Z,6.55
2018-04-15T04:11:44.103Z,6.60
2018-04-15T04:12:44.035Z,6.50
2018-04-15T04:13:43.943Z,6.52
2018-04-15T04:14:43.975Z,6.48
2018-04-15T04:15:43.789Z,6.59
2018-04-15T04:16:43.788Z,6.63
2018-04-15T04:17:43.634Z,6.62
2018-04-15T04:18:43.595Z,6.59
2018-04-15T04:19:43.479Z,6.65
2018-04-15T04:20:43.408Z,6.66
2018-04-15T04:21:43.324Z,6.60
2018-04-15T04:22:43.250Z,6.62
2018-04-15T04:23:43.171Z,6.68
2018-04-15T04:24:43.096Z,6.63
2018-04-15T04:25:43.022Z,6.59
2018-04-15T04:26:43.029Z,6.42
2018-04-15T04:27:42.857Z,6.50
2018-04-15T04:28:42.840Z,6.41
2018-04-15T04:29:42.701Z,6.44
2018-04-15T04:30:42.651Z,6.42
2018-04-15T04:31:42.544Z,6.39
2018-04-15T04:32:42.480Z,6.34
2018-04-15T04:33:42.384Z,6.32
2018-04-15T04:34:42.368Z,6.27
2018-04-15T04:35:42.237Z,6.36
2018-04-15T04:36:42.177Z,6.37
2018-04-15T04:37:42.075Z,6.32
2018-04-15T04:38:42.089Z,6.27
2018-04-15T04:39:41.918Z,6.39
2018-04-15T04:40:41.850Z,6.36
2018-04-15T04:41:41.763Z,6.44
2018-04-15T04:42:41.704Z,6.39
2018-04-15T04:43:41.606Z,6.41
2018-04-15T04:44:41.535Z,6.47
2018-04-15T04:45:41.452Z,6.44
2018-04-15T04:46:41.378Z,6.41
2018-04-15T04:47:41.293Z,6.44
2018-04-15T04:48:41.223Z,6.34
2018-04-15T04:49:41.140Z,6.26
2018-04-15T04:50:41.072Z,6.22
2018-04-15T04:51:40.982Z,6.13
2018-04-15T04:52:40.911Z,6.13
2018-04-15T04:53:40.825Z,6.13
2018-04-15T04:54:40.754Z,6.08
2018-04-15T04:55:40.668Z,6.10
2018-04-15T04:56:40.596Z,6.15
2018-04-15T04:57:40.513Z,6.15
2018-04-15T04:58:40.463Z,6.27
2018-04-15T04:59:40.355Z,6.27
2018-04-15T05:00:40.389Z,6.24
2018-04-15T05:01:40.200Z,6.30
2018-04-15T05:02:40.195Z,6.37
2018-04-15T05:03:40.117Z,6.45
2018-04-15T05:04:40.006Z,6.39
2018-04-15T05:05:39.887Z,6.41
2018-04-15T05:06:39.914Z,6.42
2018-04-15T05:07:39.735Z,6.39
2018-04-15T05:08:39.724Z,6.47
2018-04-15T05:09:39.583Z,6.45
2018-04-15T05:10:39.532Z,6.47
2018-04-15T05:11:39.416Z,6.51
2018-04-15T05:12:39.352Z,6.48
2018-04-15T05:13:39.261Z,6.36
2018-04-15T05:14:39.251Z,6.51
2018-04-15T05:15:39.114Z,6.45
2018-04-15T05:16:39.094Z,6.45
2018-04-15T05:17:38.950Z,6.45
2018-04-15T05:18:38.970Z,6.44
2018-04-15T05:19:38.793Z,6.42
2018-04-15T05:20:38.782Z,6.39
2018-04-15T05:21:38.639Z,6.39
2018-04-15T05:22:38.593Z,6.33
2018-04-15T05:23:38.480Z,6.42
2018-04-15T05:24:38.507Z,6.41
2018-04-15T05:25:38.326Z,6.47
2018-04-15T05:26:38.305Z,6.44
2018-04-15T05:27:38.173Z,6.44
2018-04-15T05:28:38.119Z,6.48
2018-04-15T05:29:38.018Z,6.51
2018-04-15T05:30:38.023Z,6.59
2018-04-15T05:31:37.854Z,6.51
2018-04-15T05:32:37.831Z,6.57
2018-04-15T05:33:37.696Z,6.62
2018-04-15T05:34:37.644Z,6.57
2018-04-15T05:35:37.542Z,6.60
2018-04-15T05:36:37.469Z,6.75
2018-04-15T05:37:37.393Z,6.72
2018-04-15T05:38:37.360Z,6.72
2018-04-15T05:39:37.243Z,6.69
2018-04-15T05:40:37.158Z,6.76
2018-04-15T05:41:37.074Z,6.84
2018-04-15T05:42:37.000Z,6.73
2018-04-15T05:43:36.919Z,6.83
2018-04-15T05:44:36.847Z,6.78
2018-04-15T05:45:36.761Z,6.84
2018-04-15T05:46:36.804Z,6.91
2018-04-15T05:47:36.616Z,6.94
2018-04-15T05:48:36.607Z,6.93
2018-04-15T05:49:36.452Z,7.01
2018-04-15T05:50:36.415Z,7.01
2018-04-15T05:51:36.293Z,7.03
2018-04-15T05:52:36.219Z,7.09
2018-04-15T05:53:36.140Z,7.08
2018-04-15T05:54:36.137Z,7.11
2018-04-15T05:55:35.981Z,7.06
2018-04-15T05:56:35.912Z,7.17
2018-04-15T05:57:35.827Z,7.16
2018-04-15T05:58:35.757Z,7.17
2018-04-15T05:59:35.690Z,7.26
2018-04-15T06:00:35.601Z,7.24
2018-04-15T06:01:35.527Z,7.31
2018-04-15T06:02:35.441Z,7.35
2018-04-15T06:03:35.362Z,7.37
2018-04-15T06:04:35.288Z,7.34
2018-04-15T06:05:35.200Z,7.39
2018-04-15T06:06:35.131Z,7.41
2018-04-15T06:07:35.044Z,7.44
2018-04-15T06:08:34.976Z,7.56
2018-04-15T06:09:34.893Z,7.56
2018-04-15T06:10:34.909Z,7.53
2018-04-15T06:11:34.734Z,7.59
2018-04-15T06:12:34.657Z,7.55
2018-04-15T06:13:34.688Z,7.67
2018-04-15T06:14:34.501Z,7.67
2018-04-15T06:15:34.496Z,7.70
2018-04-15T06:16:34.352Z,7.79
2018-04-15T06:17:34.418Z,7.83
2018-04-15T06:18:34.190Z,7.82
2018-04-15T06:19:34.217Z,7.94
2018-04-15T06:20:34.034Z,7.83
2018-04-15T06:21:34.130Z,7.86
2018-04-15T06:22:33.875Z,7.93
2018-04-15T06:23:33.936Z,7.94
2018-04-15T06:24:33.762Z,7.90
2018-04-15T06:25:33.745Z,7.97
2018-04-15T06:26:33.570Z,8.00
2018-04-15T06:27:33.654Z,8.04
2018-04-15T06:28:33.413Z,8.17
2018-04-15T06:29:33.359Z,8.19
2018-04-15T06:30:33.369Z,8.18
2018-04-15T06:31:33.180Z,8.15
2018-04-15T06:32:33.181Z,8.27
2018-04-15T06:33:33.024Z,8.24
2018-04-15T06:34:32.959Z,8.36
2018-04-15T06:35:33.002Z,8.43
2018-04-15T06:36:32.795Z,8.48
2018-04-15T06:37:33.600Z,8.57
2018-04-15T06:38:32.637Z,8.60
2018-04-15T06:39:32.718Z,8.65
2018-04-15T06:40:32.484Z,8.72
2018-04-15T06:41:32.450Z,8.70
2018-04-15T06:42:32.327Z,8.79
2018-04-15T06:43:32.359Z,8.80
2018-04-15T06:44:32.174Z,8.88
2018-04-15T06:45:32.168Z,8.91
2018-04-15T06:46:32.023Z,8.98
2018-04-15T06:47:31.980Z,8.93
2018-04-15T06:48:31.863Z,8.93
2018-04-15T06:49:31.887Z,9.09
2018-04-15T06:50:31.714Z,9.09
2018-04-15T06:51:31.697Z,9.20
2018-04-15T06:52:31.556Z,9.27
2018-04-15T06:53:31.504Z,9.12
2018-04-15T06:54:31.404Z,9.24
2018-04-15T06:55:31.414Z,9.37
2018-04-15T06:56:31.249Z,9.32
2018-04-15T06:57:31.224Z,9.43
2018-04-15T06:58:31.094Z,9.50
2018-04-15T06:59:31.036Z,9.49
2018-04-15T07:00:30.942Z,9.50
2018-04-15T07:01:30.948Z,9.72
2018-04-15T07:02:30.783Z,9.74
2018-04-15T07:03:30.753Z,9.79
2018-04-15T07:04:30.631Z,9.82
2018-04-15T07:05:30.660Z,9.82
2018-04-15T07:06:30.473Z,9.79
2018-04-15T07:07:30.470Z,9.82
2018-04-15T07:08:30.324Z,9.82
2018-04-15T07:09:30.304Z,9.92
2018-04-15T07:10:30.169Z,9.98
2018-04-15T07:11:30.191Z,9.92
2018-04-15T07:12:30.018Z,9.97
2018-04-15T07:13:29.998Z,10.08
2018-04-15T07:14:29.860Z,10.10
2018-04-15T07:15:29.823Z,10.08
2018-04-15T07:16:29.717Z,10.16
2018-04-15T07:17:29.721Z,10.21
2018-04-15T07:18:29.557Z,10.13
2018-04-15T07:19:29.530Z,10.26
2018-04-15T07:20:29.405Z,10.31
2018-04-15T07:21:29.437Z,10.34
2018-04-15T07:22:29.248Z,10.44
2018-04-15T07:23:29.245Z,10.44
2018-04-15T07:24:29.102Z,10.56
2018-04-15T07:25:29.053Z,10.60
2018-04-15T07:26:28.945Z,10.63
2018-04-15T07:27:28.963Z,10.59
2018-04-15T07:28:28.807Z,10.69
2018-04-15T07:29:28.774Z,10.69
2018-04-15T07:30:28.675Z,10.74
2018-04-15T07:31:28.585Z,10.81
2018-04-15T07:32:28.484Z,10.95
2018-04-15T07:33:28.495Z,11.02
2018-04-15T07:34:28.333Z,11.08
2018-04-15T07:35:28.300Z,11.16
2018-04-15T07:36:28.231Z,11.34
2018-04-15T07:37:28.209Z,11.35
2018-04-15T07:38:28.029Z,11.36
2018-04-15T07:39:28.022Z,11.38
2018-04-15T07:40:27.880Z,11.49
2018-04-15T07:41:27.831Z,11.59
2018-04-15T07:42:27.726Z,11.65
2018-04-15T07:43:27.739Z,11.71
2018-04-15T07:44:27.573Z,11.84
2018-04-15T07:45:27.551Z,11.90
2018-04-15T07:46:27.421Z,11.84
2018-04-15T07:47:27.459Z,11.94
2018-04-15T07:48:27.275Z,12.08
2018-04-15T07:49:27.266Z,12.13
2018-04-15T07:50:27.131Z,12.23
2018-04-15T07:51:27.081Z,12.21
2018-04-15T07:52:26.967Z,12.26
2018-04-15T07:53:26.989Z,12.31
2018-04-15T07:54:26.816Z,12.42
2018-04-15T07:55:26.793Z,12.36
2018-04-15T07:56:26.668Z,12.41
2018-04-15T07:57:26.710Z,12.46
2018-04-15T07:58:26.516Z,12.53
2018-04-15T07:59:26.517Z,12.49
2018-04-15T08:00:26.363Z,12.59
2018-04-15T08:01:26.325Z,12.55
2018-04-15T08:02:26.214Z,12.61
2018-04-15T08:03:26.235Z,12.64
2018-04-15T08:04:26.069Z,12.81
2018-04-15T08:05:26.047Z,12.84
2018-04-15T08:06:25.914Z,12.91
2018-04-15T08:07:25.957Z,12.99
2018-04-15T08:08:25.762Z,13.02
2018-04-15T08:09:25.783Z,13.10
2018-04-15T08:10:25.612Z,13.17
2018-04-15T08:11:30.287Z,13.11
2018-04-15T08:12:25.471Z,13.32
2018-04-15T08:13:25.484Z,13.38
2018-04-15T08:14:25.312Z,13.37
2018-04-15T08:15:25.294Z,13.44
2018-04-15T08:16:25.157Z,13.55
2018-04-15T08:17:31.760Z,13.66
2018-04-15T08:18:25.019Z,13.70
2018-04-15T08:19:25.011Z,13.71
2018-04-15T08:20:24.864Z,13.73
2018-04-15T08:21:24.819Z,13.76
2018-04-15T08:22:24.714Z,13.80
2018-04-15T08:23:24.730Z,13.74
2018-04-15T08:24:24.565Z,13.77
2018-04-15T08:25:24.540Z,13.86
2018-04-15T08:26:24.415Z,13.95
2018-04-15T08:27:24.451Z,14.05
2018-04-15T08:28:24.266Z,14.13
2018-04-15T08:29:24.262Z,14.36
2018-04-15T08:30:24.119Z,14.42
2018-04-15T08:31:24.060Z,14.44
2018-04-15T08:32:23.969Z,14.36
2018-04-15T08:33:23.978Z,14.34
2018-04-15T08:34:23.822Z,14.24
2018-04-15T08:35:23.780Z,14.20
2018-04-15T08:36:23.671Z,14.20
2018-04-15T08:37:23.702Z,14.17
2018-04-15T08:38:23.524Z,14.17
2018-04-15T08:39:23.506Z,14.24
2018-04-15T08:40:23.380Z,14.23
2018-04-15T08:41:23.419Z,14.29
2018-04-15T08:42:23.229Z,14.21
2018-04-15T08:43:23.231Z,14.14
2018-04-15T08:44:23.077Z,14.20
2018-04-15T08:45:23.035Z,14.09
2018-04-15T08:46:22.934Z,14.13
2018-04-15T08:47:22.947Z,14.28
2018-04-15T08:48:22.784Z,14.29
2018-04-15T08:49:22.754Z,14.38
2018-04-15T08:50:22.634Z,14.42
2018-04-15T08:51:22.667Z,14.38
2018-04-15T08:52:22.491Z,14.38
2018-04-15T08:53:22.471Z,14.36
2018-04-15T08:54:22.345Z,14.34
2018-04-15T08:55:22.396Z,14.34
2018-04-15T08:56:22.197Z,14.46
2018-04-15T08:57:22.200Z,14.46
2018-04-15T08:58:22.049Z,14.47
2018-04-15T08:59:22.003Z,14.39
2018-04-15T09:00:21.903Z,14.50
2018-04-15T09:01:21.913Z,14.59
2018-04-15T09:02:21.754Z,14.53
2018-04-15T09:03:21.725Z,14.57
2018-04-15T09:04:21.602Z,14.61
2018-04-15T09:05:21.626Z,14.64
2018-04-15T09:06:21.463Z,14.64
2018-04-15T09:07:21.439Z,14.61
2018-04-15T09:08:21.315Z,14.72
2018-04-15T09:09:22.272Z,14.68
2018-04-15T09:10:21.164Z,14.87
2018-04-15T09:11:21.158Z,14.74
2018-04-15T09:12:21.034Z,14.85
2018-04-15T09:13:20.967Z,14.78
2018-04-15T09:14:20.870Z,14.72
2018-04-15T09:15:20.877Z,14.69
2018-04-15T09:16:20.724Z,14.67
2018-04-15T09:17:20.713Z,14.83
2018-04-15T09:18:20.576Z,14.79
2018-04-15T09:19:20.596Z,14.88
2018-04-15T09:20:20.431Z,14.87
2018-04-15T09:21:20.403Z,14.90
2018-04-15T09:22:20.282Z,14.84
2018-04-15T09:23:20.384Z,14.94
2018-04-15T09:24:20.136Z,14.95
2018-04-15T09:25:21.153Z,14.94
2018-04-15T09:26:19.991Z,14.97
2018-04-15T09:27:19.952Z,14.97
2018-04-15T09:28:19.842Z,14.93
2018-04-15T09:29:19.768Z,14.95
2018-04-15T09:30:19.696Z,14.98
2018-04-15T09:31:19.622Z,15.06
2018-04-15T09:32:19.660Z,15.01
2018-04-15T09:33:19.478Z,15.15
2018-04-15T09:34:19.468Z,15.18
2018-04-15T09:35:19.328Z,15.15
2018-04-15T09:36:19.276Z,15.15
2018-04-15T09:37:19.184Z,15.26
2018-04-15T09:38:19.191Z,15.13
2018-04-15T09:39:19.035Z,15.13
2018-04-15T09:40:18.974Z,15.26
2018-04-15T09:41:18.893Z,15.35
2018-04-15T09:42:18.826Z,15.49
2018-04-15T09:43:18.743Z,15.51
2018-04-15T09:44:18.678Z,15.53
2018-04-15T09:45:18.598Z,15.53
2018-04-15T09:46:18.574Z,15.57
2018-04-15T09:47:18.452Z,15.49
2018-04-15T09:48:18.387Z,15.59
2018-04-15T09:49:18.306Z,15.53
2018-04-15T09:50:18.242Z,15.55
2018-04-15T09:51:18.160Z,15.60
2018-04-15T09:52:18.095Z,15.55
2018-04-15T09:53:18.012Z,15.60
2018-04-15T09:54:18.949Z,15.61
2018-04-15T09:55:17.869Z,15.55
2018-04-15T09:56:17.804Z,15.57
2018-04-15T09:57:17.722Z,15.52
2018-04-15T09:58:17.655Z,15.46
2018-04-15T09:59:17.577Z,15.43
2018-04-15T10:00:17.514Z,15.55
2018-04-15T10:01:17.433Z,15.46
2018-04-15T10:02:17.366Z,15.61
2018-04-15T10:03:17.287Z,15.53
2018-04-15T10:04:17.217Z,15.63
2018-04-15T10:05:17.142Z,15.75
2018-04-15T10:06:17.076Z,15.61
2018-04-15T10:07:16.998Z,15.61
2018-04-15T10:08:16.929Z,15.57
2018-04-15T10:09:16.850Z,15.60
2018-04-15T10:10:16.788Z,15.59
2018-04-15T10:11:16.706Z,15.60
2018-04-15T10:12:16.640Z,15.64
2018-04-15T10:13:16.562Z,15.61
2018-04-15T10:14:16.499Z,15.66
2018-04-15T10:15:16.424Z,15.64
2018-04-15T10:16:16.352Z,15.61
2018-04-15T10:17:16.268Z,15.71
2018-04-15T10:18:16.204Z,15.75
2018-04-15T10:19:16.122Z,15.82
2018-04-15T10:20:16.057Z,15.70
2018-04-15T10:21:15.978Z,15.71
2018-04-15T10:22:15.914Z,15.81
2018-04-15T10:23:15.837Z,15.82
2018-04-15T10:24:15.775Z,15.88
2018-04-15T10:25:15.688Z,15.86
2018-04-15T10:26:15.622Z,16.00
2018-04-15T10:27:15.544Z,16.04
2018-04-15T10:28:15.479Z,16.04
2018-04-15T10:29:15.401Z,16.16
2018-04-15T10:30:15.334Z,16.16
2018-04-15T10:31:15.258Z,16.18
2018-04-15T10:32:15.187Z,16.20
2018-04-15T10:33:15.110Z,16.18
2018-04-15T10:34:15.044Z,16.35
2018-04-15T10:35:14.969Z,16.30
2018-04-15T10:36:14.904Z,16.45
2018-04-15T10:37:14.818Z,16.41
2018-04-15T10:38:14.754Z,16.34
2018-04-15T10:39:14.676Z,16.40
2018-04-15T10:40:14.618Z,16.40
2018-04-15T10:41:14.531Z,16.52
2018-04-15T10:42:14.471Z,16.60
2018-04-15T10:43:14.395Z,16.71
2018-04-15T10:44:14.322Z,16.75
2018-04-15T10:45:14.247Z,16.66
2018-04-15T10:46:14.183Z,16.66
2018-04-15T10:47:14.095Z,16.70
2018-04-15T10:48:14.035Z,16.62
2018-04-15T10:49:13.955Z,16.59
2018-04-15T10:50:13.889Z,16.53
2018-04-15T10:51:13.809Z,16.55
2018-04-15T10:52:13.751Z,16.63
2018-04-15T10:53:13.666Z,16.57
2018-04-15T10:54:13.607Z,16.63
2018-04-15T10:55:13.532Z,16.62
2018-04-15T10:56:13.468Z,16.60
2018-04-15T10:57:13.380Z,16.57
2018-04-15T10:58:13.321Z,16.66
2018-04-15T10:59:13.236Z,16.62
2018-04-15T11:00:13.176Z,16.60
2018-04-15T11:01:13.097Z,16.60
2018-04-15T11:02:13.030Z,16.66
2018-04-15T11:03:12.950Z,16.67
2018-04-15T11:04:12.889Z,16.67
2018-04-15T11:05:12.807Z,16.77
2018-04-15T11:06:12.741Z,16.73
2018-04-15T11:07:12.663Z,16.82
2018-04-15T11:08:12.598Z,16.82
2018-04-15T11:09:12.519Z,16.85
2018-04-15T11:10:12.453Z,16.89
2018-04-15T11:11:12.382Z,16.99
2018-04-15T11:12:12.313Z,17.00
2018-04-15T11:13:12.237Z,17.18
2018-04-15T11:14:12.190Z,17.23
2018-04-15T11:15:12.088Z,17.23
2018-04-15T11:16:13.025Z,17.38
2018-04-15T11:17:11.946Z,17.32
2018-04-15T11:18:11.887Z,17.29
2018-04-15T11:19:11.804Z,17.35
2018-04-15T11:20:11.745Z,17.32
2018-04-15T11:21:11.662Z,17.36
2018-04-15T11:22:11.599Z,17.40
2018-04-15T11:23:11.518Z,17.55
2018-04-15T11:24:11.453Z,17.48
2018-04-15T11:25:11.381Z,17.60
2018-04-15T11:26:11.313Z,17.71
2018-04-15T11:27:11.232Z,17.87
2018-04-15T11:28:11.173Z,17.91
2018-04-15T11:29:11.091Z,18.09
2018-04-15T11:30:11.033Z,18.21
2018-04-15T11:31:10.950Z,18.34
2018-04-15T11:32:10.892Z,18.37
2018-04-15T11:33:10.810Z,18.52
2018-04-15T11:34:10.745Z,18.68
2018-04-15T11:35:10.668Z,18.71
2018-04-15T11:36:10.615Z,18.77
2018-04-15T11:37:10.526Z,18.90
2018-04-15T11:38:10.463Z,18.98
2018-04-15T11:39:10.390Z,19.17
2018-04-15T11:40:10.326Z,19.35
2018-04-15T11:41:10.246Z,19.25
2018-04-15T11:42:10.180Z,19.42
2018-04-15T11:43:10.103Z,19.43
2018-04-15T11:44:10.041Z,19.40
2018-04-15T11:45:09.989Z,19.54
2018-04-15T11:46:09.902Z,19.58
2018-04-15T11:47:09.823Z,19.63
2018-04-15T11:48:09.759Z,19.57
2018-04-15T11:49:09.682Z,19.63
2018-04-15T11:50:09.628Z,19.64
2018-04-15T11:51:09.542Z,19.78
2018-04-15T11:52:09.482Z,19.83
2018-04-15T11:53:09.404Z,19.88
2018-04-15T11:54:09.341Z,19.91
2018-04-15T11:55:09.262Z,19.88
2018-04-15T11:56:09.206Z,19.78
2018-04-15T11:57:09.128Z,19.65
2018-04-15T11:58:09.060Z,19.64
2018-04-15T11:59:08.983Z,19.61
2018-04-15T12:00:08.924Z,19.61
2018-04-15T12:01:08.846Z,19.63
2018-04-15T12:02:08.793Z,19.72
2018-04-15T12:03:08.709Z,19.88
2018-04-15T12:04:08.650Z,19.91
2018-04-15T12:05:08.569Z,19.97
2018-04-15T12:06:08.510Z,19.97
2018-04-15T12:07:08.430Z,19.98
2018-04-15T12:08:08.368Z,20.06
2018-04-15T12:09:08.293Z,20.09
2018-04-15T12:10:08.271Z,20.08
2018-04-15T12:11:08.157Z,20.08
2018-04-15T12:12:08.095Z,20.00
2018-04-15T12:13:08.016Z,19.86
2018-04-15T12:14:07.957Z,19.73
2018-04-15T12:15:07.878Z,19.65
2018-04-15T12:16:07.819Z,19.50
2018-04-15T12:17:07.742Z,19.48
2018-04-15T12:18:07.681Z,19.51
2018-04-15T12:19:07.609Z,19.50
2018-04-15T12:20:07.544Z,19.60
2018-04-15T12:21:07.468Z,19.58
2018-04-15T12:22:07.402Z,19.60
2018-04-15T12:23:07.328Z,19.61
2018-04-15T12:24:07.268Z,19.61
2018-04-15T12:25:07.192Z,19.57
2018-04-15T12:26:07.133Z,19.51
2018-04-15T12:27:07.057Z,19.53
2018-04-15T12:28:06.993Z,19.51
2018-04-15T12:29:06.917Z,19.54
2018-04-15T12:30:06.859Z,19.63
2018-04-15T12:31:06.777Z,19.58
2018-04-15T12:32:06.712Z,19.68
2018-04-15T12:33:06.644Z,19.58
2018-04-15T12:34:06.581Z,19.55
2018-04-15T12:35:06.505Z,19.61
2018-04-15T12:36:06.452Z,19.60
2018-04-15T12:37:06.368Z,19.63
2018-04-15T12:38:07.310Z,19.65
2018-04-15T12:39:06.227Z,19.78
2018-04-15T12:40:06.167Z,19.83
2018-04-15T12:41:06.092Z,19.87
2018-04-15T12:42:06.031Z,19.94
2018-04-15T12:43:05.954Z,19.91
2018-04-15T12:44:05.892Z,20.12
2018-04-15T12:45:05.819Z,20.19
2018-04-15T12:46:06.759Z,20.37
2018-04-15T12:47:05.679Z,20.38
2018-04-15T12:48:05.618Z,20.43
2018-04-15T12:49:05.552Z,20.51
2018-04-15T12:50:05.484Z,20.47
2018-04-15T12:51:05.403Z,20.50
2018-04-15T12:52:05.346Z,20.43
2018-04-15T12:53:05.278Z,20.40
2018-04-15T12:54:05.211Z,20.26
2018-04-15T12:55:05.133Z,20.50
2018-04-15T12:56:05.071Z,20.50
2018-04-15T12:57:04.994Z,20.56
2018-04-15T12:58:04.932Z,20.56
2018-04-15T12:59:04.859Z,20.50
2018-04-15T13:00:04.796Z,20.53
2018-04-15T13:01:04.726Z,20.54
2018-04-15T13:02:04.660Z,20.49
2018-04-15T13:03:04.585Z,20.47
2018-04-15T13:04:04.527Z,20.49
2018-04-15T13:05:04.445Z,20.50